PWSweather.com
Personal Weather Stations
Station Observations
CALONGE
CalongeES 17251

CalongeES 17251

Lat: 41.85972222, Lon: 3.077777778

Elevation: 16

Station Type: Oregon WMR928N

www.calonge-meteoweb.com

High Low Average
Temperature 73.0°F22.8°C 54.1°F12.3°C 63.7°F17.6°C
Dew Point 51.2°F10.7°C 31.6°F-0.2°C 42.5°F5.8°C
Winds 15.5 mph 24.9 kmh Calm Calm 6.0 mph SW9.7 kmh SW
Wind Gusts 22.9 mph36.9 kmh -- 10.0 mph16.1 kmh
Humidity 71% 25% 48%
Pressure 30.21 in1023.0 mb 30.01 in1016.3 mb -
Precipitation 0.00 in0.0 mm - -
Hour Temp Dew Point Humidity Winds Wind Gusts Pressure Precip Precip Rate Daily Precip Total
12:00 AM 60.6°F15.9°C 51.2°F10.7°C 71% 2.9 mph NW4.7 kmh NW 5.3 mph8.5 kmh 30.01 in1016.3 mb 0.00 in0.0 mm 0.00 in0.0 mm 0.00 in0.0 mm
12:15 AM 60.4°F15.8°C 50.6°F10.3°C 70% 6.4 mph WNW10.3 kmh WNW 7.0 mph11.3 kmh 30.01 in1016.3 mb 0.00 in0.0 mm 0.00 in0.0 mm 0.00 in0.0 mm
12:30 AM 60.4°F15.8°C 50.6°F10.3°C 70% Calm Calm 5.3 mph8.5 kmh 30.01 in1016.3 mb 0.00 in0.0 mm 0.00 in0.0 mm 0.00 in0.0 mm
12:45 AM 60.4°F15.8°C 50.6°F10.3°C 70% 5.9 mph NW9.5 kmh NW 11.4 mph18.3 kmh 30.04 in1017.3 mb 0.00 in0.0 mm 0.00 in0.0 mm 0.00 in0.0 mm
01:00 AM 60.4°F15.8°C 50.6°F10.3°C 70% 3.5 mph NW5.6 kmh NW 5.9 mph9.5 kmh 30.04 in1017.3 mb 0.00 in0.0 mm 0.00 in0.0 mm 0.00 in0.0 mm
01:15 AM 60.4°F15.8°C 40.6°F4.8°C 48% Calm Calm 5.3 mph8.5 kmh 30.04 in1017.3 mb 0.00 in0.0 mm 0.00 in0.0 mm 0.00 in0.0 mm
01:30 AM 59.2°F15.1°C 40.0°F4.4°C 49% 4.1 mph WNW6.6 kmh WNW 7.0 mph11.3 kmh 30.04 in1017.3 mb 0.00 in0.0 mm 0.00 in0.0 mm 0.00 in0.0 mm
01:45 AM 59.2°F15.1°C 40.0°F4.4°C 49% 5.3 mph NW8.5 kmh NW 6.4 mph10.3 kmh 30.04 in1017.3 mb 0.00 in0.0 mm 0.00 in0.0 mm 0.00 in0.0 mm
02:00 AM 59.2°F15.1°C 37.3°F2.9°C 44% 7.6 mph NW12.2 kmh NW 10.0 mph16.1 kmh 30.04 in1017.3 mb 0.00 in0.0 mm 0.00 in0.0 mm 0.00 in0.0 mm
02:15 AM 59.2°F15.1°C 37.3°F2.9°C 44% 4.7 mph NNW7.6 kmh NNW 10.8 mph17.4 kmh 30.04 in1017.3 mb 0.00 in0.0 mm 0.00 in0.0 mm 0.00 in0.0 mm
02:30 AM 59.2°F15.1°C 37.3°F2.9°C 44% 7.6 mph NNW12.2 kmh NNW 14.4 mph23.2 kmh 30.04 in1017.3 mb 0.00 in0.0 mm 0.00 in0.0 mm 0.00 in0.0 mm
02:45 AM 59.0°F15.0°C 37.1°F2.8°C 44% 9.4 mph NW15.1 kmh NW 11.4 mph18.3 kmh 30.04 in1017.3 mb 0.00 in0.0 mm 0.00 in0.0 mm 0.00 in0.0 mm
03:00 AM 59.0°F15.0°C 37.1°F2.8°C 44% 6.4 mph NW10.3 kmh NW 10.0 mph16.1 kmh 30.04 in1017.3 mb 0.00 in0.0 mm 0.00 in0.0 mm 0.00 in0.0 mm
03:15 AM 59.0°F15.0°C 37.1°F2.8°C 44% 6.4 mph WNW10.3 kmh WNW 10.0 mph16.1 kmh 30.04 in1017.3 mb 0.00 in0.0 mm 0.00 in0.0 mm 0.00 in0.0 mm
03:30 AM 58.6°F14.8°C 36.2°F2.3°C 43% 5.9 mph NNW9.5 kmh NNW 9.4 mph15.1 kmh 30.04 in1017.3 mb 0.00 in0.0 mm 0.00 in0.0 mm 0.00 in0.0 mm
03:45 AM 58.6°F14.8°C 36.2°F2.3°C 43% 10.0 mph WNW16.1 kmh WNW 11.4 mph18.3 kmh 30.04 in1017.3 mb 0.00 in0.0 mm 0.00 in0.0 mm 0.00 in0.0 mm
04:00 AM 58.5°F14.7°C 36.0°F2.2°C 43% 13.8 mph WNW22.2 kmh WNW 17.3 mph27.8 kmh 30.01 in1016.3 mb 0.00 in0.0 mm 0.00 in0.0 mm 0.00 in0.0 mm
04:15 AM 57.9°F14.4°C 36.7°F2.6°C 45% 6.4 mph WNW10.3 kmh WNW 10.0 mph16.1 kmh 30.01 in1016.3 mb 0.00 in0.0 mm 0.00 in0.0 mm 0.00 in0.0 mm
04:30 AM 57.9°F14.4°C 36.7°F2.6°C 45% 6.4 mph WNW10.3 kmh WNW 8.2 mph13.2 kmh 30.04 in1017.3 mb 0.00 in0.0 mm 0.00 in0.0 mm 0.00 in0.0 mm
04:45 AM 57.4°F14.1°C 36.8°F2.7°C 46% 5.9 mph NW9.5 kmh NW 13.2 mph21.2 kmh 30.04 in1017.3 mb 0.00 in0.0 mm 0.00 in0.0 mm 0.00 in0.0 mm
05:00 AM 57.2°F14.0°C 36.6°F2.6°C 46% Calm Calm 4.7 mph7.6 kmh 30.04 in1017.3 mb 0.00 in0.0 mm 0.00 in0.0 mm 0.00 in0.0 mm
05:15 AM 56.7°F13.7°C 36.6°F2.6°C 47% Calm Calm -- 30.04 in1017.3 mb 0.00 in0.0 mm 0.00 in0.0 mm 0.00 in0.0 mm
05:30 AM 56.7°F13.7°C 36.6°F2.6°C 47% Calm Calm -- 30.04 in1017.3 mb 0.00 in0.0 mm 0.00 in0.0 mm 0.00 in0.0 mm
05:45 AM 54.3°F12.4°C 37.5°F3.1°C 53% Calm Calm -- 30.04 in1017.3 mb 0.00 in0.0 mm 0.00 in0.0 mm 0.00 in0.0 mm
06:00 AM 54.1°F12.3°C 37.8°F3.2°C 54% Calm Calm -- 30.04 in1017.3 mb 0.00 in0.0 mm 0.00 in0.0 mm 0.00 in0.0 mm
06:15 AM 54.1°F12.3°C 37.8°F3.2°C 54% Calm Calm -- 30.07 in1018.3 mb 0.00 in0.0 mm 0.00 in0.0 mm 0.00 in0.0 mm
06:30 AM 55.2°F12.9°C 38.9°F3.8°C 54% Calm Calm -- 30.07 in1018.3 mb 0.00 in0.0 mm 0.00 in0.0 mm 0.00 in0.0 mm
06:45 AM 56.7°F13.7°C 38.2°F3.4°C 50% 8.2 mph NW13.2 kmh NW 8.2 mph13.2 kmh 30.07 in1018.3 mb 0.00 in0.0 mm 0.00 in0.0 mm 0.00 in0.0 mm
07:00 AM 58.8°F14.9°C 38.1°F3.4°C 46% 5.3 mph NW8.5 kmh NW 11.4 mph18.3 kmh 30.07 in1018.3 mb 0.00 in0.0 mm 0.00 in0.0 mm 0.00 in0.0 mm
07:15 AM 59.9°F15.5°C 35.5°F1.9°C 40% 3.5 mph N5.6 kmh N 12.0 mph19.3 kmh 30.07 in1018.3 mb 0.00 in0.0 mm 0.00 in0.0 mm 0.00 in0.0 mm
07:30 AM 60.8°F16.0°C 35.7°F2.1°C 39% 6.4 mph NW10.3 kmh NW 10.0 mph16.1 kmh 30.07 in1018.3 mb 0.00 in0.0 mm 0.00 in0.0 mm 0.00 in0.0 mm
07:45 AM 61.2°F16.2°C 36.0°F2.2°C 39% 8.2 mph NW13.2 kmh NW 14.4 mph23.2 kmh 30.07 in1018.3 mb 0.00 in0.0 mm 0.00 in0.0 mm 0.00 in0.0 mm
08:00 AM 62.1°F16.7°C 36.1°F2.3°C 38% 4.7 mph NW7.6 kmh NW 10.5 mph16.9 kmh 30.07 in1018.3 mb 0.00 in0.0 mm 0.00 in0.0 mm 0.00 in0.0 mm
08:15 AM 63.5°F17.5°C 35.3°F1.8°C 35% 6.4 mph WNW10.3 kmh WNW 16.1 mph25.9 kmh 30.07 in1018.3 mb 0.00 in0.0 mm 0.00 in0.0 mm 0.00 in0.0 mm
08:30 AM 63.7°F17.6°C 34.8°F1.6°C 34% 10.8 mph NW17.4 kmh NW 22.9 mph36.9 kmh 30.07 in1018.3 mb 0.00 in0.0 mm 0.00 in0.0 mm 0.00 in0.0 mm
08:45 AM 64.0°F17.8°C 35.1°F1.7°C 34% 11.4 mph NW18.3 kmh NW 13.8 mph22.2 kmh 30.07 in1018.3 mb 0.00 in0.0 mm 0.00 in0.0 mm 0.00 in0.0 mm
09:00 AM 64.9°F18.3°C 35.1°F1.7°C 33% 13.8 mph NW22.2 kmh NW 17.3 mph27.8 kmh 30.07 in1018.3 mb 0.00 in0.0 mm 0.00 in0.0 mm 0.00 in0.0 mm
09:15 AM 65.8°F18.8°C 35.9°F2.2°C 33% 10.5 mph NW16.9 kmh NW 14.9 mph24.0 kmh 30.09 in1019.0 mb 0.00 in0.0 mm 0.00 in0.0 mm 0.00 in0.0 mm
09:30 AM 66.7°F19.3°C 33.4°F0.8°C 29% 7.6 mph NW12.2 kmh NW 13.8 mph22.2 kmh 30.09 in1019.0 mb 0.00 in0.0 mm 0.00 in0.0 mm 0.00 in0.0 mm
09:45 AM 67.8°F19.9°C 33.5°F0.8°C 28% 8.8 mph NW14.2 kmh NW 13.8 mph22.2 kmh 30.09 in1019.0 mb 0.00 in0.0 mm 0.00 in0.0 mm 0.00 in0.0 mm
10:00 AM 68.9°F20.5°C 31.6°F-0.2°C 25% 9.4 mph NW15.1 kmh NW 12.0 mph19.3 kmh 30.09 in1019.0 mb 0.00 in0.0 mm 0.00 in0.0 mm 0.00 in0.0 mm
10:15 AM 69.6°F20.9°C 32.2°F0.1°C 25% 7.6 mph NW12.2 kmh NW 12.0 mph19.3 kmh 30.09 in1019.0 mb 0.00 in0.0 mm 0.00 in0.0 mm 0.00 in0.0 mm
10:30 AM 70.7°F21.5°C 33.1°F0.6°C 25% 2.9 mph NW4.7 kmh NW 10.0 mph16.1 kmh 30.07 in1018.3 mb 0.00 in0.0 mm 0.00 in0.0 mm 0.00 in0.0 mm
10:45 AM 70.5°F21.4°C 34.0°F1.1°C 26% Calm Calm 7.0 mph11.3 kmh 30.07 in1018.3 mb 0.00 in0.0 mm 0.00 in0.0 mm 0.00 in0.0 mm
11:00 AM 70.9°F21.6°C 35.2°F1.8°C 27% 5.9 mph SSE9.5 kmh SSE 8.8 mph14.2 kmh 30.07 in1018.3 mb 0.00 in0.0 mm 0.00 in0.0 mm 0.00 in0.0 mm
11:15 AM 70.9°F21.6°C 35.2°F1.8°C 27% 6.4 mph SSE10.3 kmh SSE 16.7 mph26.9 kmh 30.07 in1018.3 mb 0.00 in0.0 mm 0.00 in0.0 mm 0.00 in0.0 mm
11:30 AM 70.9°F21.6°C 41.1°F5.1°C 34% 6.4 mph SW10.3 kmh SW 10.8 mph17.4 kmh 30.09 in1019.0 mb 0.00 in0.0 mm 0.00 in0.0 mm 0.00 in0.0 mm
11:45 AM 71.4°F21.9°C 40.8°F4.9°C 33% 7.6 mph S12.2 kmh S 13.2 mph21.2 kmh 30.09 in1019.0 mb 0.00 in0.0 mm 0.00 in0.0 mm 0.00 in0.0 mm
12:00 PM 71.8°F22.1°C 41.1°F5.1°C 33% 10.0 mph S16.1 kmh S 14.4 mph23.2 kmh 30.09 in1019.0 mb 0.00 in0.0 mm 0.00 in0.0 mm 0.00 in0.0 mm
12:15 PM 70.7°F21.5°C 40.2°F4.6°C 33% 10.0 mph S16.1 kmh S 16.1 mph25.9 kmh 30.09 in1019.0 mb 0.00 in0.0 mm 0.00 in0.0 mm 0.00 in0.0 mm
12:30 PM 69.6°F20.9°C 40.7°F4.8°C 35% 4.7 mph SSE7.6 kmh SSE 13.8 mph22.2 kmh 30.09 in1019.0 mb 0.00 in0.0 mm 0.00 in0.0 mm 0.00 in0.0 mm
12:45 PM 69.4°F20.8°C 42.7°F5.9°C 38% 10.5 mph SSE16.9 kmh SSE 10.0 mph16.1 kmh 30.09 in1019.0 mb 0.00 in0.0 mm 0.00 in0.0 mm 0.00 in0.0 mm
01:00 PM 70.3°F21.3°C 44.2°F6.8°C 39% 6.4 mph S10.3 kmh S 10.8 mph17.4 kmh 30.09 in1019.0 mb 0.00 in0.0 mm 0.00 in0.0 mm 0.00 in0.0 mm
01:15 PM 70.3°F21.3°C 44.2°F6.8°C 39% 10.0 mph SSW16.1 kmh SSW 10.5 mph16.9 kmh 30.09 in1019.0 mb 0.00 in0.0 mm 0.00 in0.0 mm 0.00 in0.0 mm
01:30 PM 72.3°F22.4°C 42.4°F5.8°C 34% 11.4 mph S18.3 kmh S 14.4 mph23.2 kmh 30.09 in1019.0 mb 0.00 in0.0 mm 0.00 in0.0 mm 0.00 in0.0 mm
01:45 PM 73.0°F22.8°C 44.5°F6.9°C 36% 15.5 mph SSE24.9 kmh SSE 14.4 mph23.2 kmh 30.07 in1018.3 mb 0.00 in0.0 mm 0.00 in0.0 mm 0.00 in0.0 mm
02:00 PM 71.8°F22.1°C 43.4°F6.3°C 36% 5.9 mph S9.5 kmh S 10.8 mph17.4 kmh 30.09 in1019.0 mb 0.00 in0.0 mm 0.00 in0.0 mm 0.00 in0.0 mm
02:15 PM 72.0°F22.2°C 42.8°F6.0°C 35% 6.4 mph S10.3 kmh S 17.3 mph27.8 kmh 30.09 in1019.0 mb 0.00 in0.0 mm 0.00 in0.0 mm 0.00 in0.0 mm
02:30 PM 70.3°F21.3°C 45.5°F7.5°C 41% 10.5 mph S16.9 kmh S 10.8 mph17.4 kmh 30.09 in1019.0 mb 0.00 in0.0 mm 0.00 in0.0 mm 0.00 in0.0 mm
02:45 PM 69.4°F20.8°C 47.8°F8.8°C 46% 9.4 mph SSE15.1 kmh SSE 16.1 mph25.9 kmh 30.09 in1019.0 mb 0.00 in0.0 mm 0.00 in0.0 mm 0.00 in0.0 mm
03:00 PM 68.4°F20.2°C 48.5°F9.2°C 49% 10.0 mph SSE16.1 kmh SSE 20.2 mph32.5 kmh 30.09 in1019.0 mb 0.00 in0.0 mm 0.00 in0.0 mm 0.00 in0.0 mm
03:15 PM 68.5°F20.3°C 49.2°F9.6°C 50% 10.8 mph SSE17.4 kmh SSE 16.1 mph25.9 kmh 30.09 in1019.0 mb 0.00 in0.0 mm 0.00 in0.0 mm 0.00 in0.0 mm
03:30 PM 67.8°F19.9°C 48.0°F8.9°C 49% 7.0 mph S11.3 kmh S 14.4 mph23.2 kmh 30.09 in1019.0 mb 0.00 in0.0 mm 0.00 in0.0 mm 0.00 in0.0 mm
03:45 PM 67.3°F19.6°C 47.5°F8.6°C 49% 10.0 mph S16.1 kmh S 12.6 mph20.3 kmh 30.09 in1019.0 mb 0.00 in0.0 mm 0.00 in0.0 mm 0.00 in0.0 mm
04:00 PM 67.8°F19.9°C 48.0°F8.9°C 49% 10.5 mph S16.9 kmh S 14.4 mph23.2 kmh 30.09 in1019.0 mb 0.00 in0.0 mm 0.00 in0.0 mm 0.00 in0.0 mm
04:15 PM 67.6°F19.8°C 47.2°F8.4°C 48% 10.0 mph S16.1 kmh S 13.2 mph21.2 kmh 30.09 in1019.0 mb 0.00 in0.0 mm 0.00 in0.0 mm 0.00 in0.0 mm
04:30 PM 67.6°F19.8°C 47.2°F8.4°C 48% 5.9 mph SW9.5 kmh SW 7.6 mph12.2 kmh 30.09 in1019.0 mb 0.00 in0.0 mm 0.00 in0.0 mm 0.00 in0.0 mm
04:45 PM 67.6°F19.8°C 47.2°F8.4°C 48% 6.4 mph S10.3 kmh S 12.6 mph20.3 kmh 30.09 in1019.0 mb 0.00 in0.0 mm 0.00 in0.0 mm 0.00 in0.0 mm
05:00 PM 65.8°F18.8°C 47.7°F8.7°C 52% 7.0 mph S11.3 kmh S 10.5 mph16.9 kmh 30.09 in1019.0 mb 0.00 in0.0 mm 0.00 in0.0 mm 0.00 in0.0 mm
05:15 PM 66.4°F19.1°C 49.2°F9.6°C 54% 6.4 mph S10.3 kmh S 10.8 mph17.4 kmh 30.09 in1019.0 mb 0.00 in0.0 mm 0.00 in0.0 mm 0.00 in0.0 mm
05:30 PM 66.7°F19.3°C 48.5°F9.2°C 52% 7.0 mph SW11.3 kmh SW 10.5 mph16.9 kmh 30.09 in1019.0 mb 0.00 in0.0 mm 0.00 in0.0 mm 0.00 in0.0 mm
05:45 PM 66.7°F19.3°C 48.5°F9.2°C 52% 5.9 mph SSW9.5 kmh SSW 10.8 mph17.4 kmh 30.09 in1019.0 mb 0.00 in0.0 mm 0.00 in0.0 mm 0.00 in0.0 mm
06:00 PM 68.4°F20.2°C 49.0°F9.4°C 50% 7.6 mph S12.2 kmh S 10.8 mph17.4 kmh 30.09 in1019.0 mb 0.00 in0.0 mm 0.00 in0.0 mm 0.00 in0.0 mm
06:15 PM 68.0°F20.0°C 49.2°F9.6°C 51% 8.8 mph S14.2 kmh S 13.8 mph22.2 kmh 30.09 in1019.0 mb 0.00 in0.0 mm 0.00 in0.0 mm 0.00 in0.0 mm
06:30 PM 67.8°F19.9°C 49.5°F9.7°C 52% 7.0 mph SSW11.3 kmh SSW 10.8 mph17.4 kmh 30.09 in1019.0 mb 0.00 in0.0 mm 0.00 in0.0 mm 0.00 in0.0 mm
06:45 PM 67.8°F19.9°C 50.1°F10.1°C 53% 6.4 mph SW10.3 kmh SW 8.2 mph13.2 kmh 30.12 in1020.0 mb 0.00 in0.0 mm 0.00 in0.0 mm 0.00 in0.0 mm
07:00 PM 67.8°F19.9°C 50.6°F10.3°C 54% 3.5 mph S5.6 kmh S 7.6 mph12.2 kmh 30.12 in1020.0 mb 0.00 in0.0 mm 0.00 in0.0 mm 0.00 in0.0 mm
07:15 PM 67.3°F19.6°C 50.6°F10.3°C 55% 6.4 mph S10.3 kmh S 7.0 mph11.3 kmh 30.12 in1020.0 mb 0.00 in0.0 mm 0.00 in0.0 mm 0.00 in0.0 mm
07:30 PM 67.1°F19.5°C 49.9°F9.9°C 54% Calm Calm 10.0 mph16.1 kmh 30.12 in1020.0 mb 0.00 in0.0 mm 0.00 in0.0 mm 0.00 in0.0 mm
07:45 PM 66.2°F19.0°C 50.0°F10.0°C 56% Calm Calm 7.0 mph11.3 kmh 30.12 in1020.0 mb 0.00 in0.0 mm 0.00 in0.0 mm 0.00 in0.0 mm
08:00 PM 64.9°F18.3°C 49.3°F9.6°C 57% 3.5 mph ENE5.6 kmh ENE 4.7 mph7.6 kmh 30.12 in1020.0 mb 0.00 in0.0 mm 0.00 in0.0 mm 0.00 in0.0 mm
08:15 PM 64.8°F18.2°C 49.6°F9.8°C 58% Calm Calm 6.4 mph10.3 kmh 30.12 in1020.0 mb 0.00 in0.0 mm 0.00 in0.0 mm 0.00 in0.0 mm
08:30 PM 63.1°F17.3°C 50.3°F10.2°C 63% Calm Calm -- 30.12 in1020.0 mb 0.00 in0.0 mm 0.00 in0.0 mm 0.00 in0.0 mm
08:45 PM 63.1°F17.3°C 50.3°F10.2°C 63% Calm Calm -- 30.15 in1021.0 mb 0.00 in0.0 mm 0.00 in0.0 mm 0.00 in0.0 mm
09:00 PM 63.1°F17.3°C 50.3°F10.2°C 63% Calm Calm -- 30.15 in1021.0 mb 0.00 in0.0 mm 0.00 in0.0 mm 0.00 in0.0 mm
09:15 PM 60.3°F15.7°C 49.7°F9.8°C 68% Calm Calm -- 30.15 in1021.0 mb 0.00 in0.0 mm 0.00 in0.0 mm 0.00 in0.0 mm
09:30 PM 59.5°F15.3°C 49.7°F9.8°C 70% 4.1 mph WSW6.6 kmh WSW 5.9 mph9.5 kmh 30.18 in1022.0 mb 0.00 in0.0 mm 0.00 in0.0 mm 0.00 in0.0 mm
09:45 PM 58.6°F14.8°C 48.5°F9.2°C 69% 4.7 mph W7.6 kmh W 7.6 mph12.2 kmh 30.18 in1022.0 mb 0.00 in0.0 mm 0.00 in0.0 mm 0.00 in0.0 mm
10:00 PM 58.6°F14.8°C 48.5°F9.2°C 69% Calm Calm 7.0 mph11.3 kmh 30.18 in1022.0 mb 0.00 in0.0 mm 0.00 in0.0 mm 0.00 in0.0 mm
10:15 PM 57.9°F14.4°C 47.4°F8.6°C 68% Calm Calm -- 30.18 in1022.0 mb 0.00 in0.0 mm 0.00 in0.0 mm 0.00 in0.0 mm
10:30 PM 57.2°F14.0°C 46.7°F8.2°C 68% Calm Calm -- 30.18 in1022.0 mb 0.00 in0.0 mm 0.00 in0.0 mm 0.00 in0.0 mm
10:45 PM 56.8°F13.8°C 46.4°F8.0°C 68% 4.1 mph WSW6.6 kmh WSW 5.3 mph8.5 kmh 30.18 in1022.0 mb 0.00 in0.0 mm 0.00 in0.0 mm 0.00 in0.0 mm
11:00 PM 56.7°F13.7°C 46.6°F8.1°C 69% Calm Calm -- 30.18 in1022.0 mb 0.00 in0.0 mm 0.00 in0.0 mm 0.00 in0.0 mm
11:15 PM 56.5°F13.6°C 46.0°F7.8°C 68% Calm Calm 6.4 mph10.3 kmh 30.21 in1023.0 mb 0.00 in0.0 mm 0.00 in0.0 mm 0.00 in0.0 mm
11:30 PM 59.0°F15.0°C 41.9°F5.5°C 53% 5.3 mph NW8.5 kmh NW 10.0 mph16.1 kmh 30.21 in1023.0 mb 0.00 in0.0 mm 0.00 in0.0 mm 0.00 in0.0 mm
11:45 PM 58.5°F14.7°C 44.6°F7.0°C 60% 7.6 mph WNW12.2 kmh WNW 11.4 mph18.3 kmh 30.21 in1023.0 mb 0.00 in0.0 mm 0.00 in0.0 mm 0.00 in0.0 mm